Time;durP1;ratioP1;P1;durP2;ratioP2;P2;SDS_P1;SDS_P2;PMS_P1;PMS_P2;Temp;Humidity;BMP_temperature;BMP_pressure;BME280_temperature;BME280_humidity;BME280_pressure;Samples;Min_cycle;Max_cycle;Signal;HPM_P1;HPM_P2
2023/11/07 00:06:10;;;;;;;;;;;8.40;99.90;;;;;;15502255;23;20095;-34
2023/11/07 00:12:43;;;;;;;3.63;1.42;;;8.40;99.90;;;;;;15493785;23;19919;-34
2023/11/07 00:19:16;;;;;;;6.82;1.40;;;8.40;99.90;;;;;;15557156;22;20027;-33
2023/11/07 00:25:45;;;;;;;6.70;1.45;;;8.40;99.90;;;;;;15567266;22;20316;-34
2023/11/07 00:32:16;;;;;;;7.15;1.50;;;8.50;99.90;;;;;;15567269;22;20049;-34
2023/11/07 00:38:48;;;;;;;4.28;1.27;;;8.40;99.90;;;;;;15570353;22;20019;-33
2023/11/07 00:45:15;;;;;;;3.97;1.25;;;8.40;99.90;;;;;;15545185;22;20781;-34
2023/11/07 00:51:47;;;;;;;8.45;1.65;;;8.50;99.90;;;;;;15567676;22;20089;-34
2023/11/07 00:58:16;;;;;;;6.10;1.52;;;8.50;99.90;;;;;;15568275;22;20024;-33
2023/11/07 01:04:39;;;;;;;4.50;1.38;;;8.50;99.90;;;;;;15567255;22;20366;-34
2023/11/07 01:11:22;;;;;;;6.78;1.52;;;8.40;99.90;;;;;;15573151;22;20020;-34
2023/11/07 01:18:00;;;;;;;4.72;1.48;;;8.50;99.90;;;;;;15568002;22;20027;-34
2023/11/07 01:24:32;;;;;;;4.95;1.33;;;8.60;99.90;;;;;;15564720;22;20026;-34
2023/11/07 01:31:04;;;;;;;7.53;1.70;;;8.60;99.90;;;;;;15569690;22;20023;-33
2023/11/07 01:37:39;;;;;;;6.35;1.38;;;8.60;99.90;;;;;;15548713;22;20024;-33
2023/11/07 01:44:10;;;;;;;11.20;1.52;;;8.70;99.90;;;;;;15568426;22;20028;-33
2023/11/07 01:50:41;;;;;;;7.82;1.70;;;8.60;99.90;;;;;;15573796;22;20026;-33
2023/11/07 01:57:18;;;;;;;6.10;1.60;;;8.70;99.90;;;;;;15562815;22;20046;-34
2023/11/07 02:03:48;;;;;;;4.38;1.50;;;8.80;99.90;;;;;;15576136;22;20023;-33
2023/11/07 02:10:21;;;;;;;4.40;1.80;;;8.80;99.90;;;;;;15551233;22;20022;-34
2023/11/07 02:16:50;;;;;;;6.03;1.50;;;8.80;99.90;;;;;;15573925;22;20023;-34
2023/11/07 02:23:39;;;;;;;6.53;1.55;;;8.80;99.90;;;;;;15574139;22;20027;-33
2023/11/07 02:30:11;;;;;;;6.82;1.92;;;8.80;99.90;;;;;;15573710;22;20460;-33
2023/11/07 02:36:41;;;;;;;7.03;1.88;;;8.80;99.90;;;;;;15575096;22;20075;-34
2023/11/07 02:43:13;;;;;;;5.72;1.30;;;8.80;99.90;;;;;;15552252;22;20086;-34
2023/11/07 02:49:48;;;;;;;4.50;1.38;;;8.70;99.90;;;;;;15575122;22;20020;-33
2023/11/07 02:56:18;;;;;;;6.03;1.40;;;8.80;99.90;;;;;;15576209;22;20069;-34
2023/11/07 03:02:58;;;;;;;6.38;1.30;;;8.80;99.90;;;;;;15576429;22;20644;-33
2023/11/07 03:09:29;;;;;;;4.63;1.23;;;8.80;99.90;;;;;;15575542;22;20095;-33
2023/11/07 03:16:14;;;;;;;4.03;1.40;;;8.80;99.90;;;;;;15574521;22;20024;-34
2023/11/07 03:22:52;;;;;;;6.22;1.42;;;8.80;99.90;;;;;;15574398;22;20024;-33
2023/11/07 03:29:30;;;;;;;2.42;1.08;;;8.80;99.90;;;;;;15574741;22;20031;-33
2023/11/07 03:36:09;;;;;;;5.95;1.30;;;8.80;99.90;;;;;;15574617;22;20058;-34
2023/11/07 03:42:39;;;;;;;5.78;1.20;;;8.80;99.90;;;;;;15574412;22;20402;-34
2023/11/07 03:49:08;;;;;;;6.55;1.15;;;8.80;99.90;;;;;;15574968;22;20076;-34
2023/11/07 03:55:44;;;;;;;;;;;8.80;99.90;;;;;;15573239;22;20034;-33
2023/11/07 04:02:14;;;;;;;4.55;1.35;;;8.80;99.90;;;;;;15548950;22;19926;-34
2023/11/07 04:08:49;;;;;;;;;;;8.90;99.90;;;;;;15571867;22;20515;-34
2023/11/07 04:15:19;;;;;;;2.22;1.08;;;9.00;99.90;;;;;;15548633;22;19919;-34
2023/11/07 04:22:00;;;;;;;4.57;1.20;;;9.10;99.90;;;;;;15573971;22;20026;-34
2023/11/07 04:28:39;;;;;;;4.32;0.98;;;9.10;99.90;;;;;;15551765;22;20023;-34
2023/11/07 04:35:15;;;;;;;4.43;1.02;;;9.10;99.90;;;;;;15572551;22;20024;-33
2023/11/07 04:41:52;;;;;;;4.90;0.98;;;9.00;99.90;;;;;;15571489;22;20030;-33
2023/11/07 04:48:31;;;;;;;5.30;1.00;;;9.00;99.90;;;;;;15551833;22;20457;-34
2023/11/07 04:54:57;;;;;;;6.82;1.10;;;9.10;99.90;;;;;;15551527;22;20485;-34
2023/11/07 05:01:35;;;;;;;4.15;1.00;;;9.00;99.90;;;;;;15576086;22;20020;-34
2023/11/07 05:07:57;;;;;;;3.57;1.00;;;9.10;99.90;;;;;;15574992;22;20030;-34
2023/11/07 05:14:29;;;;;;;4.22;0.80;;;9.10;99.90;;;;;;15569049;22;20020;-34
2023/11/07 05:21:04;;;;;;;3.63;0.80;;;9.10;99.90;;;;;;15454755;23;20035;-34
2023/11/07 05:27:31;;;;;;;3.55;0.77;;;9.10;99.90;;;;;;15495188;23;20017;-33
2023/11/07 05:34:00;;;;;;;1.70;0.47;;;9.10;99.90;;;;;;15494752;23;20481;-34
2023/11/07 05:40:28;;;;;;;2.10;0.80;;;9.00;99.90;;;;;;15495163;23;20148;-33
2023/11/07 05:46:56;;;;;;;2.30;0.70;;;9.10;99.90;;;;;;15467925;23;20024;-34
2023/11/07 05:53:29;;;;;;;2.20;0.73;;;9.10;99.90;;;;;;15499012;23;20023;-34
2023/11/07 06:00:07;;;;;;;2.92;0.73;;;9.10;99.90;;;;;;15497382;23;20040;-34
2023/11/07 06:06:51;;;;;;;3.53;0.75;;;9.00;99.90;;;;;;15494434;23;20020;-34
2023/11/07 06:13:40;;;;;;;2.03;0.68;;;9.10;99.90;;;;;;15478723;23;20053;-34
2023/11/07 06:20:30;;;;;;;5.53;1.00;;;9.20;99.90;;;;;;15572365;22;20065;-34
2023/11/07 06:27:13;;;;;;;2.40;0.60;;;9.20;99.90;;;;;;15553132;22;20054;-34
2023/11/07 06:33:39;;;;;;;1.42;0.60;;;9.30;99.90;;;;;;15558021;22;20138;-34
2023/11/07 06:40:18;;;;;;;3.78;0.90;;;9.30;99.90;;;;;;15582070;22;20028;-34
2023/11/07 06:47:03;;;;;;;2.55;0.85;;;9.40;99.90;;;;;;15580043;22;20055;-34
2023/11/07 06:53:44;;;;;;;3.25;0.80;;;9.40;99.90;;;;;;15556016;22;20020;-34
2023/11/07 07:00:24;;;;;;;3.05;0.80;;;9.30;99.90;;;;;;15554677;22;20028;-34
2023/11/07 07:07:12;;;;;;;3.03;0.60;;;9.30;99.90;;;;;;15575815;22;20473;-33
2023/11/07 07:13:57;;;;;;;2.08;0.60;;;9.30;99.90;;;;;;15554947;22;20027;-34
2023/11/07 07:20:45;;;;;;;1.88;0.60;;;9.40;99.90;;;;;;15574977;22;20023;-34
2023/11/07 07:27:08;;;;;;;1.10;0.60;;;9.40;99.90;;;;;;15578036;22;20020;-34
2023/11/07 07:33:53;;;;;;;2.78;0.80;;;9.50;99.90;;;;;;15557639;22;20027;-34
2023/11/07 07:40:35;;;;;;;5.75;0.80;;;9.50;99.90;;;;;;15579317;22;20504;-33
2023/11/07 07:47:03;;;;;;;2.65;0.63;;;9.50;99.90;;;;;;15578963;22;20026;-34
2023/11/07 07:53:43;;;;;;;2.58;0.60;;;9.50;99.90;;;;;;15553729;22;20020;-34
2023/11/07 08:00:14;;;;;;;2.03;0.82;;;9.50;99.90;;;;;;15579761;22;20081;-34
2023/11/07 08:07:03;;;;;;;5.05;0.80;;;9.50;99.90;;;;;;15578400;22;20063;-34
2023/11/07 08:13:50;;;;;;;1.92;0.70;;;9.50;99.90;;;;;;15577019;22;20030;-34
2023/11/07 08:20:33;;;;;;;2.97;1.00;;;9.60;99.90;;;;;;15556800;22;20024;-34
2023/11/07 08:27:03;;;;;;;3.55;1.20;;;9.70;99.90;;;;;;15569038;22;20026;-34
2023/11/07 08:33:43;;;;;;;2.72;1.02;;;9.80;99.90;;;;;;15577583;22;20331;-34
2023/11/07 08:40:34;;;;;;;3.40;0.60;;;9.80;99.90;;;;;;15576929;22;20027;-34
2023/11/07 08:47:06;;;;;;;2.13;0.75;;;9.90;99.90;;;;;;15576316;22;20095;-34
2023/11/07 08:53:42;;;;;;;4.45;1.10;;;10.10;99.90;;;;;;15578994;22;20026;-34
2023/11/07 09:00:27;;;;;;;1.83;0.80;;;9.90;99.90;;;;;;15575738;22;20061;-34
2023/11/07 09:07:06;;;;;;;3.08;0.98;;;10.10;99.90;;;;;;15555382;22;20472;-34
2023/11/07 09:13:50;;;;;;;5.22;1.55;;;10.10;99.90;;;;;;15578098;22;20016;-33
2023/11/07 09:20:37;;;;;;;4.43;1.17;;;10.10;99.90;;;;;;15555154;22;20027;-34
2023/11/07 09:27:16;;;;;;;2.47;1.08;;;10.00;99.90;;;;;;15552100;22;20027;-34
2023/11/07 09:33:56;;;;;;;5.50;0.90;;;10.30;99.90;;;;;;15576701;22;20015;-34
2023/11/07 09:40:37;;;;;;;2.33;0.70;;;10.30;99.90;;;;;;15575827;22;20035;-34
2023/11/07 09:47:11;;;;;;;2.03;0.70;;;10.30;99.90;;;;;;15575237;22;20142;-34
2023/11/07 09:53:51;;;;;;;2.53;0.80;;;10.20;99.90;;;;;;15573620;22;20020;-34
2023/11/07 10:00:31;;;;;;;1.67;0.75;;;10.30;99.90;;;;;;15576455;22;20719;-34
2023/11/07 10:07:10;;;;;;;2.70;0.90;;;10.30;99.90;;;;;;15559530;22;20020;-34
2023/11/07 10:14:05;;;;;;;3.85;1.20;;;10.30;99.90;;;;;;15583619;22;20015;-34
2023/11/07 10:20:40;;;;;;;6.03;1.05;;;10.30;99.90;;;;;;15580614;22;20391;-33
2023/11/07 10:27:20;;;;;;;2.47;0.90;;;10.40;99.90;;;;;;15580255;22;20023;-34
2023/11/07 10:34:19;;;;;;;2.75;1.00;;;10.30;99.90;;;;;;15580817;22;20072;-34
2023/11/07 10:41:05;;;;;;;3.03;0.90;;;10.50;99.90;;;;;;15556406;22;20035;-34
2023/11/07 10:47:39;;;;;;;2.37;0.80;;;10.60;99.90;;;;;;15552223;22;20016;-34
2023/11/07 10:54:30;;;;;;;2.88;1.00;;;10.50;99.90;;;;;;15580181;22;20030;-34
2023/11/07 11:01:12;;;;;;;3.50;1.10;;;10.40;99.90;;;;;;15579250;22;20065;-34
2023/11/07 11:07:59;;;;;;;4.63;0.80;;;10.40;99.90;;;;;;15567364;22;20499;-35
2023/11/07 11:14:42;;;;;;;4.43;1.40;;;10.50;99.90;;;;;;15576889;22;20027;-34
2023/11/07 11:21:31;;;;;;;4.93;1.10;;;10.40;99.90;;;;;;15580106;22;20350;-34
2023/11/07 11:28:12;;;;;;;4.55;0.98;;;10.40;99.90;;;;;;15577528;22;20027;-34
2023/11/07 11:35:03;;;;;;;2.35;0.70;;;10.90;99.90;;;;;;15578201;22;20019;-34
2023/11/07 11:42:09;;;;;;;3.90;0.90;;;11.40;99.90;;;;;;15554172;22;20015;-34
2023/11/07 11:49:07;;;;;;;3.97;1.00;;;11.10;99.90;;;;;;15559071;22;20020;-34
2023/11/07 11:56:10;;;;;;;1.88;0.80;;;10.60;99.90;;;;;;15554207;22;20082;-34
2023/11/07 12:02:51;;;;;;;3.78;0.80;;;10.50;99.90;;;;;;15579106;22;20015;-34
2023/11/07 12:10:00;;;;;;;4.63;0.70;;;10.30;99.90;;;;;;15579626;22;20027;-34
2023/11/07 12:16:39;;;;;;;1.05;0.60;;;10.30;99.90;;;;;;15575132;22;20470;-33
2023/11/07 12:23:39;;;;;;;1.17;0.55;;;9.90;99.90;;;;;;15576547;22;20111;-34
2023/11/07 12:30:27;;;;;;;0.70;0.40;;;9.80;99.90;;;;;;15577443;22;20023;-34
2023/11/07 12:37:09;;;;;;;0.85;0.50;;;9.70;99.90;;;;;;15577363;22;20031;-34
2023/11/07 12:43:50;;;;;;;1.55;0.32;;;9.70;99.90;;;;;;15553632;22;20024;-34
2023/11/07 12:50:43;;;;;;;1.65;0.40;;;9.90;99.90;;;;;;15572779;22;20146;-33
2023/11/07 12:57:13;;;;;;;1.00;0.70;;;10.20;99.90;;;;;;15575553;22;20026;-34
2023/11/07 13:03:46;;;;;;;2.42;1.38;;;10.70;99.90;;;;;;15576916;22;20453;-33
2023/11/07 13:10:41;;;;;;;2.35;1.40;;;10.90;99.90;;;;;;15575585;22;20102;-34
2023/11/07 13:17:13;;;;;;;3.83;1.33;;;10.80;99.90;;;;;;15573412;22;20133;-34
2023/11/07 13:23:57;;;;;;;2.60;1.10;;;10.70;99.90;;;;;;15574268;22;20028;-34
2023/11/07 13:30:38;;;;;;;3.05;1.65;;;10.70;99.90;;;;;;15554280;22;20016;-34
2023/11/07 13:36:56;;;;;;;4.55;1.50;;;10.70;99.90;;;;;;15551943;22;20370;-34
2023/11/07 13:43:29;;;;;;;3.30;1.25;;;10.70;99.90;;;;;;15580555;22;20055;-34
2023/11/07 13:50:07;;;;;;;3.42;1.50;;;10.70;99.90;;;;;;15571510;22;20100;-34
2023/11/07 13:56:40;;;;;;;3.10;1.30;;;10.80;99.90;;;;;;15554143;22;20024;-33
2023/11/07 14:03:16;;;;;;;3.57;1.70;;;10.90;99.90;;;;;;15558613;22;20098;-34
2023/11/07 14:10:05;;;;;;;2.38;1.23;;;10.80;99.90;;;;;;15545421;22;20026;-34
2023/11/07 14:16:37;;;;;;;6.07;1.70;;;10.80;99.90;;;;;;15578821;22;20086;-34
2023/11/07 14:23:09;;;;;;;3.58;1.70;;;10.70;99.90;;;;;;15556209;22;20024;-34
2023/11/07 14:29:44;;;;;;;3.10;1.60;;;10.60;99.90;;;;;;15578437;22;20100;-34
2023/11/07 14:36:32;;;;;;;4.03;1.75;;;10.60;99.90;;;;;;15579933;22;20042;-34
2023/11/07 14:43:25;;;;;;;3.25;1.60;;;10.60;99.90;;;;;;15559106;22;20020;-34
2023/11/07 14:50:03;;;;;;;3.50;1.42;;;10.50;99.90;;;;;;15568198;22;20472;-34
2023/11/07 14:56:35;;;;;;;3.13;1.40;;;10.40;99.90;;;;;;15581600;22;20034;-34
2023/11/07 15:03:28;;;;;;;3.70;1.80;;;10.40;99.90;;;;;;15581174;22;20349;-34
2023/11/07 15:10:15;;;;;;;3.63;1.52;;;10.40;99.90;;;;;;15577900;22;20019;-34
2023/11/07 15:16:50;;;;;;;3.58;1.40;;;10.30;99.90;;;;;;15566452;22;20024;-34
2023/11/07 15:23:15;;;;;;;5.53;1.52;;;10.30;99.90;;;;;;15556966;22;20357;-34
2023/11/07 15:29:42;;;;;;;2.75;1.40;;;10.00;99.90;;;;;;15578537;22;20073;-34
2023/11/07 15:36:23;;;;;;;4.78;1.40;;;9.90;99.90;;;;;;15580764;22;20027;-34
2023/11/07 15:43:00;;;;;;;6.38;2.03;;;9.80;99.90;;;;;;15545226;22;20024;-34
2023/11/07 15:49:43;;;;;;;4.65;1.65;;;9.80;99.90;;;;;;15581266;22;20015;-34
2023/11/07 15:56:28;;;;;;;4.43;1.60;;;9.80;99.90;;;;;;15575360;22;20038;-34
2023/11/07 16:02:56;;;;;;;2.42;1.25;;;9.80;99.90;;;;;;15577109;22;20453;-34
2023/11/07 16:09:47;;;;;;;3.53;1.63;;;9.80;99.90;;;;;;15580757;22;20023;-34
2023/11/07 16:16:33;;;;;;;3.90;1.70;;;9.70;99.90;;;;;;15575937;22;20177;-34
2023/11/07 16:23:21;;;;;;;4.07;1.63;;;9.60;99.90;;;;;;15579448;22;20027;-33
2023/11/07 16:30:00;;;;;;;4.60;1.30;;;9.40;99.90;;;;;;15578109;22;20027;-34
2023/11/07 16:36:54;;;;;;;5.03;1.90;;;9.40;99.90;;;;;;15577595;22;20023;-34
2023/11/07 16:43:37;;;;;;;3.97;2.28;;;9.40;99.90;;;;;;15577668;22;20081;-34
2023/11/07 16:50:01;;;;;;;2.78;1.63;;;9.40;99.90;;;;;;15574347;22;20082;-34
2023/11/07 16:56:23;;;;;;;3.97;1.65;;;9.30;99.90;;;;;;15580601;22;20077;-34
2023/11/07 17:02:56;;;;;;;3.38;1.73;;;9.30;99.90;;;;;;15578058;22;20020;-34
2023/11/07 17:09:40;;;;;;;6.00;2.70;;;9.30;99.90;;;;;;15578329;22;20016;-34
2023/11/07 17:16:21;;;;;;;7.38;3.50;;;9.30;99.90;;;;;;15576247;22;20047;-34
2023/11/07 17:23:05;;;;;;;3.92;2.17;;;9.40;99.90;;;;;;15577455;22;20341;-34
2023/11/07 17:29:44;;;;;;;4.00;2.10;;;9.50;99.90;;;;;;15578282;22;20456;-33
2023/11/07 17:36:23;;;;;;;4.50;2.20;;;9.50;99.90;;;;;;15576964;22;20481;-34
2023/11/07 17:42:56;;;;;;;5.50;2.20;;;9.50;99.90;;;;;;15577092;22;20047;-34
2023/11/07 17:49:21;;;;;;;7.53;2.05;;;9.40;99.90;;;;;;15575992;22;20409;-34
2023/11/07 17:55:59;;;;;;;7.75;2.92;;;9.40;99.90;;;;;;15577373;22;20023;-34
2023/11/07 18:02:33;;;;;;;9.00;3.45;;;9.40;99.90;;;;;;15577199;22;20019;-34
2023/11/07 18:09:18;;;;;;;4.47;2.00;;;9.40;99.90;;;;;;15574344;22;20050;-34
2023/11/07 18:15:54;;;;;;;5.15;2.60;;;9.30;99.90;;;;;;15540840;22;20030;-34
2023/11/07 18:22:39;;;;;;;5.45;2.47;;;9.20;99.90;;;;;;15502606;23;20354;-34
2023/11/07 18:29:17;;;;;;;5.07;2.35;;;9.10;99.90;;;;;;15507338;23;20079;-34
2023/11/07 18:35:49;;;;;;;5.57;2.95;;;9.10;99.90;;;;;;15503868;23;20027;-34
2023/11/07 18:42:26;;;;;;;6.47;3.30;;;9.00;99.90;;;;;;15505718;23;20219;-34
2023/11/07 18:48:58;;;;;;;6.70;3.38;;;8.90;99.90;;;;;;15506148;23;20264;-33
2023/11/07 18:55:14;;;;;;;5.55;3.70;;;8.90;99.90;;;;;;15506775;23;20020;-34
2023/11/07 19:01:41;;;;;;;7.00;2.97;;;8.90;99.90;;;;;;15504668;23;20028;-34
2023/11/07 19:08:16;;;;;;;5.47;2.95;;;8.80;99.90;;;;;;15501314;23;20350;-33
2023/11/07 19:14:50;;;;;;;5.60;2.70;;;8.80;99.90;;;;;;15481345;23;20028;-34
2023/11/07 19:21:13;;;;;;;6.85;2.80;;;8.90;99.90;;;;;;15568276;22;20163;-34
2023/11/07 19:27:51;;;;;;;4.78;2.40;;;8.80;99.90;;;;;;15578299;22;20016;-34
2023/11/07 19:34:21;;;;;;;5.68;2.50;;;8.80;99.90;;;;;;15580514;22;20345;-34
2023/11/07 19:40:54;;;;;;;4.00;2.40;;;8.80;99.90;;;;;;15577339;22;20031;-34
2023/11/07 19:47:29;;;;;;;4.40;2.30;;;8.70;99.90;;;;;;15554786;22;20024;-33
2023/11/07 19:54:06;;;;;;;4.55;1.98;;;8.70;99.90;;;;;;15570997;22;20071;-33
2023/11/07 20:00:43;;;;;;;5.68;2.17;;;8.70;99.90;;;;;;15579113;22;20027;-34
2023/11/07 20:07:17;;;;;;;3.80;1.65;;;8.70;99.90;;;;;;15581290;22;20338;-34
2023/11/07 20:13:36;;;;;;;3.45;1.60;;;8.70;99.90;;;;;;15581221;22;20023;-34
2023/11/07 20:20:09;;;;;;;4.00;1.65;;;8.60;99.90;;;;;;15579272;22;20019;-34
2023/11/07 20:26:50;;;;;;;3.28;1.70;;;8.60;99.90;;;;;;15576776;22;20019;-34
2023/11/07 20:33:14;;;;;;;3.25;1.63;;;8.60;99.90;;;;;;15577606;22;20031;-34
2023/11/07 20:39:57;;;;;;;3.58;1.48;;;8.60;99.90;;;;;;15580404;22;20028;-34
2023/11/07 20:46:35;;;;;;;2.90;1.40;;;8.70;99.90;;;;;;15577299;22;20019;-34
2023/11/07 20:52:57;;;;;;;6.45;2.17;;;8.60;99.90;;;;;;15577552;22;20059;-33
2023/11/07 20:59:43;;;;;;;4.75;2.00;;;8.40;99.90;;;;;;15580025;22;20020;-34
2023/11/07 21:06:20;;;;;;;7.22;2.47;;;8.50;99.90;;;;;;15578626;22;20364;-34
2023/11/07 21:12:50;;;;;;;4.00;1.50;;;8.50;99.90;;;;;;15576284;22;20047;-34
2023/11/07 21:19:24;;;;;;;5.03;1.77;;;8.40;99.90;;;;;;15575948;22;20055;-33
2023/11/07 21:25:56;;;;;;;4.47;1.83;;;8.40;99.90;;;;;;15574976;22;20073;-34
2023/11/07 21:32:27;;;;;;;4.85;2.50;;;8.30;99.90;;;;;;15575305;22;20020;-34
2023/11/07 21:38:57;;;;;;;4.88;2.42;;;8.30;99.90;;;;;;15575911;22;20474;-33
2023/11/07 21:45:27;;;;;;;6.20;2.70;;;8.30;99.90;;;;;;15579042;22;20023;-34
2023/11/07 21:52:05;;;;;;;6.22;2.58;;;8.20;99.90;;;;;;15575166;22;20461;-34
2023/11/07 21:58:35;;;;;;;4.15;2.55;;;8.20;99.90;;;;;;15576511;22;20042;-34
2023/11/07 22:05:05;;;;;;;6.57;3.10;;;8.30;99.90;;;;;;15581664;22;20095;-33
2023/11/07 22:11:35;;;;;;;7.25;3.05;;;8.30;99.90;;;;;;15582224;22;20027;-33
2023/11/07 22:18:08;;;;;;;7.60;3.78;;;8.30;99.90;;;;;;15557520;22;20462;-33
2023/11/07 22:24:42;;;;;;;6.72;3.22;;;8.30;99.90;;;;;;15557928;22;20031;-34
2023/11/07 22:31:19;;;;;;;6.80;3.17;;;8.30;99.90;;;;;;15581656;22;20127;-33
2023/11/07 22:37:53;;;;;;;4.68;3.05;;;8.40;99.90;;;;;;15557815;22;20176;-35
2023/11/07 22:44:27;;;;;;;6.22;3.20;;;8.40;99.90;;;;;;15577886;22;20027;-34
2023/11/07 22:50:54;;;;;;;5.57;2.70;;;8.40;99.90;;;;;;15555424;22;20113;-34
2023/11/07 22:57:33;;;;;;;7.95;3.20;;;8.50;99.90;;;;;;15559145;22;20023;-33
2023/11/07 23:04:14;;;;;;;6.13;2.80;;;8.50;99.90;;;;;;15557903;22;20350;-34
2023/11/07 23:10:42;;;;;;;8.27;2.78;;;8.50;99.90;;;;;;15581182;22;20342;-34
2023/11/07 23:17:20;;;;;;;5.47;2.80;;;8.50;99.90;;;;;;15581168;22;20028;-34
2023/11/07 23:23:58;;;;;;;6.88;2.50;;;8.60;99.90;;;;;;15580527;22;20030;-34
2023/11/07 23:30:36;;;;;;;6.38;3.20;;;8.70;99.90;;;;;;15578807;22;20046;-34
2023/11/07 23:37:09;;;;;;;6.03;2.35;;;8.60;99.90;;;;;;15576921;22;20461;-34
2023/11/07 23:43:48;;;;;;;5.93;3.33;;;8.60;99.90;;;;;;15577841;22;20060;-34
2023/11/07 23:50:11;;;;;;;8.05;3.60;;;8.60;99.90;;;;;;15577330;22;20026;-34
2023/11/07 23:56:38;;;;;;;4.70;3.20;;;8.60;99.90;;;;;;15576845;22;20091;-33
